Palo Verde, California
Current Conditions -  °F | °C
As of 3:52 AM on Monday 20 Oct 2014 (Local Time) from KBLH Reporting Station
Clear Clear  
Wind Chill: 68°   Ceiling: Unl
Heat Index: 68°   Visibility: 10mi
Dew Point: 47°   Wind: 7mph
Humidity: 47%   Direction: 360°N
Pressure: 29.8"   Gusts: NA
Location:  33.43°N, 114.73°W
Report Text: KBLH 201052Z AUTO 36006KT 10SM CLR 20/08 A2980 RMK AO2 SLP084 T02000083
Loading
Personal Weather Stations






























Interactive Weather Map
Tropical Storm Tracking
New forecast layout! Learn more

10-Day Weather Forecast

Advertisements
Track Severe Weather on mobile